Time;durP1;ratioP1;P1;durP2;ratioP2;P2;SDS_P1;SDS_P2;PMS_P1;PMS_P2;Temp;Humidity;BMP_temperature;BMP_pressure;BME280_temperature;BME280_humidity;BME280_pressure;Samples;Min_cycle;Max_cycle;Signal;HPM_P1;HPM_P2
2021/01/06 00:00:26;;;;;;;4.85;4.45;;;;;;;29.76;55.76;100823.31;4922494;28;66254;-53
2021/01/06 00:02:57;;;;;;;5.93;4.90;;;;;;;29.76;55.93;100825.19;4906349;28;70267;-53
2021/01/06 00:05:29;;;;;;;4.57;4.18;;;;;;;29.77;55.84;100829.56;4902647;28;64619;-53
2021/01/06 00:08:00;;;;;;;4.72;4.30;;;;;;;29.79;55.68;100833.72;4966242;28;69640;-53
2021/01/06 00:10:32;;;;;;;4.77;4.20;;;;;;;29.80;55.68;100837.22;4934349;28;66476;-53
2021/01/06 00:13:04;;;;;;;4.75;4.40;;;;;;;29.82;55.62;100837.84;4933825;28;70233;-53
2021/01/06 00:15:37;;;;;;;4.53;4.20;;;;;;;29.84;55.98;100833.06;4965828;28;66579;-53
2021/01/06 00:18:08;;;;;;;4.60;4.03;;;;;;;29.83;55.90;100843.03;4952868;28;70135;-53
2021/01/06 00:20:40;;;;;;;4.72;4.43;;;;;;;29.83;56.01;100845.72;4906798;28;66359;-53
2021/01/06 00:23:12;;;;;;;4.90;4.50;;;;;;;29.87;55.92;100848.88;4905346;28;70484;-53
2021/01/06 00:25:44;;;;;;;4.75;4.35;;;;;;;29.89;55.51;100851.34;4905861;28;66533;-53
2021/01/06 00:28:18;;;;;;;4.68;4.32;;;;;;;29.91;55.63;100854.66;4921811;28;69963;-53
2021/01/06 00:30:58;;;;;;;6.03;4.28;;;;;;;29.93;55.28;100858.81;4921444;28;66370;-53
2021/01/06 00:33:34;;;;;;;5.45;4.95;;;;;;;29.95;55.64;100866.69;4937990;28;70620;-53
2021/01/06 00:36:10;;;;;;;7.97;4.85;;;;;;;29.95;55.90;100866.69;4927773;28;65983;-53
2021/01/06 00:38:41;;;;;;;6.45;5.20;;;;;;;29.97;55.71;100870.03;4927984;28;69932;-53
2021/01/06 00:41:13;;;;;;;6.60;4.95;;;;;;;29.91;55.74;100865.47;4944188;28;66422;-53
2021/01/06 00:43:43;;;;;;;5.47;4.88;;;;;;;29.99;55.52;100881.47;4960418;28;70228;-53
2021/01/06 00:46:15;;;;;;;5.65;5.25;;;;;;;29.99;55.43;100878.75;4929183;28;66485;-53
2021/01/06 00:48:46;;;;;;;6.25;5.50;;;;;;;29.96;55.34;100884.59;4943988;28;70340;-53
2021/01/06 00:51:18;;;;;;;5.47;5.07;;;;;;;30.00;55.76;100891.22;4913002;28;66340;-53
2021/01/06 00:53:49;;;;;;;7.50;5.20;;;;;;;30.02;55.80;100900.78;4918266;28;70275;-53
2021/01/06 00:56:31;;;;;;;9.75;5.90;;;;;;;30.00;55.55;100905.59;4951580;28;66153;-53
2021/01/06 00:59:05;;;;;;;6.32;5.65;;;;;;;30.02;55.35;100899.97;4908627;28;69960;-53
2021/01/06 01:01:37;;;;;;;6.00;5.60;;;;;;;30.03;55.86;100912.44;4988613;28;66490;-53
2021/01/06 01:04:08;;;;;;;5.63;5.13;;;;;;;30.04;55.54;100911.41;4921178;28;70269;-53
2021/01/06 01:06:39;;;;;;;10.68;6.45;;;;;;;30.04;55.38;100917.66;4969326;28;66321;-53
2021/01/06 01:09:11;;;;;;;8.03;5.27;;;;;;;30.00;55.71;100912.88;4952975;28;69890;-53
2021/01/06 01:11:42;;;;;;;6.82;6.00;;;;;;;30.05;55.85;100921.19;4969806;28;65912;-53
2021/01/06 01:14:13;;;;;;;8.07;5.28;;;;;;;30.06;55.45;100917.41;4969747;28;69856;-53
2021/01/06 01:16:46;;;;;;;5.72;5.22;;;;;;;30.09;55.83;100921.56;4918557;28;65085;-53
2021/01/06 01:19:18;;;;;;;10.43;6.03;;;;;;;30.10;55.65;100924.09;4947399;28;70438;-53
2021/01/06 01:21:50;;;;;;;7.05;5.97;;;;;;;30.10;55.56;100924.09;4933923;28;66594;-53
2021/01/06 01:24:21;;;;;;;6.35;5.72;;;;;;;30.09;55.42;100930.53;4933876;28;70637;-53
2021/01/06 01:26:53;;;;;;;6.60;6.00;;;;;;;29.93;55.45;100903.97;4917237;28;65979;-53
2021/01/06 01:29:24;;;;;;;6.45;5.53;;;;;;;30.09;55.39;100935.97;4933511;28;69629;-53
2021/01/06 01:31:55;;;;;;;;;;;;;;;29.83;56.09;100940.38;4937828;28;65901;-53
2021/01/06 01:34:26;;;;;;;11.70;6.00;;;;;;;30.06;56.01;100941.75;4937050;28;69477;-53
2021/01/06 01:36:58;;;;;;;8.40;6.65;;;;;;;30.10;55.41;100945.72;4936647;28;65885;-53
2021/01/06 01:39:29;;;;;;;6.40;5.80;;;;;;;30.06;55.32;100933.66;4936289;28;70590;-53
2021/01/06 01:42:01;;;;;;;;;;;;;;;29.61;55.44;100941.63;4940639;28;66130;-57
2021/01/06 01:44:32;;;;;;;26.38;9.02;;;;;;;29.90;54.84;100942.25;4956189;28;70611;-56
2021/01/06 01:47:20;;;;;;;38.38;10.23;;;;;;;29.71;55.50;100952.91;4925037;28;65491;-57
2021/01/06 01:49:51;;;;;;;36.70;9.98;;;;;;;29.40;55.49;100946.25;4975893;28;69453;-57
2021/01/06 01:52:44;;;;;;;35.50;10.10;;;;;;;29.36;55.46;100947.72;4916835;28;65792;-57
2021/01/06 01:55:20;;;;;;;38.80;10.87;;;;;;;29.37;55.59;100946.66;4871679;28;70494;-56
2021/01/06 01:57:56;;;;;;;36.03;10.60;;;;;;;29.42;55.88;100945.19;4886664;28;66401;-55
2021/01/06 02:00:29;;;;;;;48.20;10.27;;;;;;;29.36;56.12;100950.41;4917017;28;70302;-56
2021/01/06 02:03:38;;;;;;;42.75;10.75;;;;;;;29.42;55.91;100945.19;4901606;28;66533;-56
2021/01/06 02:06:30;;;;;;;27.38;9.70;;;;;;;29.43;56.07;100934.19;4857498;28;70541;-56
2021/01/06 02:09:10;;;;;;;34.88;10.23;;;;;;;29.51;55.98;100930.44;4933428;28;66661;-57
2021/01/06 02:11:45;;;;;;;29.67;9.88;;;;;;;29.63;55.39;100934.19;4900792;28;69765;-56
2021/01/06 02:14:21;;;;;;;33.40;10.73;;;;;;;29.67;55.52;100924.63;4901617;28;66664;-55
2021/01/06 02:17:01;;;;;;;26.38;10.48;;;;;;;29.67;55.29;100924.63;4901017;28;70529;-56
2021/01/06 02:19:38;;;;;;;31.60;10.88;;;;;;;29.69;55.27;100927.94;4925099;28;64754;-56
2021/01/06 02:22:14;;;;;;;29.73;11.07;;;;;;;29.69;55.54;100933.34;4879944;28;70538;-56
2021/01/06 02:24:50;;;;;;;24.15;10.45;;;;;;;29.61;55.75;100931.69;4935388;28;65958;-56
2021/01/06 02:27:23;;;;;;;24.13;11.45;;;;;;;29.69;55.55;100922.53;4935590;28;69844;-56
2021/01/06 02:29:54;;;;;;;32.67;11.32;;;;;;;29.72;56.03;100932.91;4951624;28;65943;-56
2021/01/06 02:32:25;;;;;;;23.30;11.50;;;;;;;29.76;56.07;100928.75;4936350;28;69793;-56
2021/01/06 02:34:57;;;;;;;28.45;11.63;;;;;;;29.72;56.14;100935.63;4935772;28;66495;-57
2021/01/06 02:37:28;;;;;;;29.20;11.38;;;;;;;29.73;56.69;100940.00;4919443;28;70173;-57
2021/01/06 02:39:59;;;;;;;25.42;11.43;;;;;;;29.68;56.40;100931.69;4935430;28;65681;-57
2021/01/06 02:42:32;;;;;;;26.98;12.40;;;;;;;29.81;56.14;100944.34;4936446;28;70525;-56
2021/01/06 02:45:11;;;;;;;28.98;12.85;;;;;;;29.81;56.30;100944.34;4951095;28;66601;-56
2021/01/06 02:47:44;;;;;;;35.05;13.23;;;;;;;29.83;55.91;100953.06;4919702;28;69954;-53
2021/01/06 02:50:19;;;;;;;29.92;11.60;;;;;;;29.81;55.80;100958.72;4916797;28;65633;-52
2021/01/06 02:53:00;;;;;;;27.55;12.00;;;;;;;29.84;55.64;100952.88;4919532;28;70454;-52
2021/01/06 02:55:33;;;;;;;39.35;12.05;;;;;;;29.88;56.05;100952.44;4935392;28;66808;-52
2021/01/06 02:58:13;;;;;;;35.60;13.23;;;;;;;29.82;56.58;100949.53;5015956;28;69845;-57
2021/01/06 03:00:45;;;;;;;29.95;11.40;;;;;;;29.90;56.15;100947.66;5027245;28;65754;-56
2021/01/06 03:03:17;;;;;;;35.80;14.00;;;;;;;29.85;55.81;100937.47;5011155;28;69766;-56
2021/01/06 03:06:00;;;;;;;28.10;12.95;;;;;;;29.86;56.18;100943.72;4977466;28;66540;-56
2021/01/06 03:08:31;;;;;;;24.77;12.60;;;;;;;29.93;55.97;100931.84;5010730;28;70113;-56
2021/01/06 03:11:04;;;;;;;33.37;14.00;;;;;;;29.90;55.58;100928.75;5003040;28;65946;-56
2021/01/06 03:13:36;;;;;;;34.20;13.88;;;;;;;29.89;55.30;100918.94;4971123;28;69813;-58
2021/01/06 03:16:08;;;;;;;42.30;14.45;;;;;;;29.68;56.10;100899.25;4957682;28;66301;-58
2021/01/06 03:18:39;;;;;;;36.60;14.07;;;;;;;29.91;56.14;100924.97;5006490;28;70198;-58
2021/01/06 03:21:10;;;;;;;40.00;14.00;;;;;;;29.96;55.76;100927.88;4984263;28;66736;-57
2021/01/06 03:23:49;;;;;;;32.47;13.18;;;;;;;29.97;55.43;100916.84;4918875;28;70368;-58
2021/01/06 03:26:24;;;;;;;31.40;12.13;;;;;;;29.92;55.38;100915.81;4967999;28;66527;-58
2021/01/06 03:28:57;;;;;;;41.33;12.25;;;;;;;30.02;55.79;100924.31;4903446;28;70456;-58
2021/01/06 03:31:37;;;;;;;30.52;12.20;;;;;;;29.96;55.34;100922.47;4919011;28;66018;-56
2021/01/06 03:34:30;;;;;;;26.83;12.35;;;;;;;29.92;55.87;100921.22;4903601;28;69977;-56
2021/01/06 03:37:13;;;;;;;29.17;12.07;;;;;;;30.04;54.72;100920.34;4950855;28;65010;-57
2021/01/06 03:40:06;;;;;;;;;;;;;;;29.86;55.35;100905.84;4950471;28;70275;-57
2021/01/06 03:42:41;;;;;;;23.20;9.95;;;;;;;30.04;54.93;100897.91;4948056;28;66254;-56
2021/01/06 03:45:18;;;;;;;23.27;10.43;;;;;;;30.03;54.87;100896.22;4918078;28;70191;-56
2021/01/06 03:48:15;;;;;;;18.95;9.93;;;;;;;30.09;55.20;100887.25;4908729;28;66671;-52
2021/01/06 03:50:51;;;;;;;13.45;9.27;;;;;;;29.90;54.64;100886.28;4957511;28;69851;-53
2021/01/06 03:53:38;;;;;;;14.30;8.85;;;;;;;29.37;53.02;100887.22;4958370;28;66636;-52
2021/01/06 03:56:20;;;;;;;13.38;8.77;;;;;;;29.02;51.23;100883.88;4942054;28;70533;-54
2021/01/06 03:59:12;;;;;;;10.80;8.10;;;;;;;28.87;51.88;100875.16;4986739;28;66788;-53
2021/01/06 04:02:04;;;;;;;12.25;7.70;;;;;;;28.82;52.78;100875.78;4976481;28;69799;-57
2021/01/06 04:04:50;;;;;;;8.65;7.25;;;;;;;28.83;52.03;100860.41;4956814;28;66735;-56
2021/01/06 04:07:40;;;;;;;7.57;6.80;;;;;;;28.69;50.71;100862.25;4924942;28;70199;-57
2021/01/06 04:10:15;;;;;;;7.18;6.57;;;;;;;28.54;52.26;100872.41;4941634;28;66662;-57
2021/01/06 04:12:46;;;;;;;6.63;6.22;;;;;;;28.47;52.50;100859.75;4988543;28;70536;-57
2021/01/06 04:15:19;;;;;;;8.50;7.30;;;;;;;28.51;53.04;100861.00;4910474;28;66635;-56
2021/01/06 04:17:54;;;;;;;7.25;6.75;;;;;;;28.58;54.24;100849.38;4941131;28;69801;-55
2021/01/06 04:20:34;;;;;;;8.57;6.63;;;;;;;28.63;54.17;100831.53;4950305;28;43156;-57
2021/01/06 04:23:14;;;;;;;6.90;6.32;;;;;;;28.43;54.88;100834.19;4918304;28;70615;-56
2021/01/06 04:25:47;;;;;;;7.60;6.90;;;;;;;28.32;53.24;100840.16;4918314;28;65893;-53
2021/01/06 04:28:27;;;;;;;7.57;6.80;;;;;;;28.37;53.59;100836.88;4934066;28;70303;-52
2021/01/06 04:31:04;;;;;;;7.05;6.55;;;;;;;28.65;52.69;100831.34;4903684;28;66248;-58
2021/01/06 04:33:40;;;;;;;7.10;6.50;;;;;;;28.73;53.56;100831.13;4902346;28;70165;-54
2021/01/06 04:36:18;;;;;;;7.30;6.13;;;;;;;28.86;53.92;100825.75;4933205;28;66993;-54
2021/01/06 04:38:54;;;;;;;5.97;5.53;;;;;;;28.86;52.31;100816.78;4903681;28;69997;-53
2021/01/06 04:41:35;;;;;;;7.15;6.45;;;;;;;28.68;52.05;100812.84;4944413;28;66528;-55
2021/01/06 04:44:21;;;;;;;6.82;6.22;;;;;;;28.60;52.55;100801.44;4896833;28;70838;-54
2021/01/06 04:47:02;;;;;;;8.45;7.03;;;;;;;28.64;53.07;100802.66;4943496;28;66042;-55
2021/01/06 04:49:48;;;;;;;6.45;5.95;;;;;;;28.67;54.38;100788.78;4943296;28;70221;-55
2021/01/06 04:52:34;;;;;;;5.65;5.25;;;;;;;28.77;55.32;100789.16;4933923;28;66550;-55
2021/01/06 04:55:26;;;;;;;6.32;5.80;;;;;;;28.80;54.71;100777.13;4946977;28;69823;-56
2021/01/06 04:58:03;;;;;;;5.23;4.80;;;;;;;28.80;52.86;100777.94;4946152;28;66574;-56
2021/01/06 05:00:49;;;;;;;5.30;5.00;;;;;;;28.71;52.65;100768.41;4946805;28;70106;-55
2021/01/06 05:03:49;;;;;;;5.57;5.28;;;;;;;28.73;53.70;100760.94;4930688;28;66772;-56
2021/01/06 05:06:29;;;;;;;6.38;5.88;;;;;;;28.75;53.63;100756.16;4930726;28;69715;-56
2021/01/06 05:09:11;;;;;;;5.50;5.10;;;;;;;28.70;54.57;100745.16;4947418;28;65774;-56
2021/01/06 05:11:55;;;;;;;5.45;5.05;;;;;;;28.73;55.12;100739.34;4950633;28;70464;-56
2021/01/06 05:14:35;;;;;;;5.82;5.32;;;;;;;28.80;55.86;100740.16;4933514;28;66343;-56
2021/01/06 05:17:09;;;;;;;5.93;5.50;;;;;;;28.83;53.98;100734.34;4965950;28;70308;-55
2021/01/06 05:19:44;;;;;;;5.55;5.22;;;;;;;28.70;52.61;100723.59;4966709;28;66354;-56
2021/01/06 05:22:15;;;;;;;7.18;5.40;;;;;;;28.70;53.52;100720.88;5007131;28;70611;-56
2021/01/06 05:24:50;;;;;;;7.47;5.07;;;;;;;28.76;54.35;100711.94;4992231;28;66093;-56
2021/01/06 05:27:26;;;;;;;5.28;4.80;;;;;;;28.80;54.14;100707.75;5009138;28;70592;-55
2021/01/06 05:30:00;;;;;;;6.15;5.55;;;;;;;28.76;53.16;100705.72;4991635;28;66563;-55
2021/01/06 05:32:40;;;;;;;5.75;5.30;;;;;;;28.59;52.16;100695.34;4992671;28;70237;-55
2021/01/06 05:35:26;;;;;;;7.10;5.95;;;;;;;28.38;53.83;100693.66;4939331;28;65866;-55
2021/01/06 05:38:02;;;;;;;5.82;5.32;;;;;;;28.52;54.37;100684.53;4917168;28;70378;-56
2021/01/06 05:40:36;;;;;;;9.27;5.40;;;;;;;28.62;55.24;100683.31;4885447;28;65885;-55
2021/01/06 05:43:27;;;;;;;5.28;4.78;;;;;;;28.62;54.89;100667.13;4882544;28;70475;-56
2021/01/06 05:46:03;;;;;;;5.93;5.32;;;;;;;28.63;53.46;100656.09;4889450;28;65893;-57
2021/01/06 05:49:00;;;;;;;9.00;5.28;;;;;;;28.52;52.82;100654.03;4926823;28;69829;-55
2021/01/06 05:51:34;;;;;;;5.10;4.80;;;;;;;28.50;53.97;100643.47;4911375;28;66424;-55
2021/01/06 05:54:27;;;;;;;5.47;4.95;;;;;;;28.58;55.09;100638.88;4875086;29;70414;-56
2021/01/06 05:57:14;;;;;;;5.30;4.90;;;;;;;28.63;54.42;100631.81;4861040;29;66784;-55
2021/01/06 05:59:47;;;;;;;5.43;4.93;;;;;;;28.57;53.38;100627.25;4836993;29;69783;-55
2021/01/06 06:02:48;;;;;;;5.10;4.80;;;;;;;28.31;53.27;100628.09;4823964;29;66543;-55
2021/01/06 06:05:56;;;;;;;5.10;4.75;;;;;;;28.30;54.39;100626.44;4839681;29;70443;-56
2021/01/06 06:09:02;;;;;;;6.40;4.72;;;;;;;28.34;55.44;100607.97;4872219;29;66670;-56
2021/01/06 06:11:34;;;;;;;5.13;4.82;;;;;;;28.45;55.98;100607.38;4887579;29;69749;-55
2021/01/06 06:14:28;;;;;;;5.13;4.72;;;;;;;28.50;55.92;100594.91;4840345;29;66431;-55
2021/01/06 06:17:18;;;;;;;4.75;4.45;;;;;;;28.51;54.88;100590.34;4910344;28;69893;-55
2021/01/06 06:19:57;;;;;;;5.03;4.72;;;;;;;28.50;55.12;100584.09;4929388;28;66687;-55
2021/01/06 06:22:34;;;;;;;5.40;5.00;;;;;;;28.56;54.83;100581.59;4867649;28;69789;-55
2021/01/06 06:25:19;;;;;;;4.43;4.13;;;;;;;28.48;54.66;100574.56;4928913;28;65878;-55
2021/01/06 06:28:12;;;;;;;4.47;4.18;;;;;;;28.25;54.21;100573.13;4898284;28;70483;-55
2021/01/06 06:31:21;;;;;;;4.93;4.47;;;;;;;28.17;55.10;100567.13;4942200;28;65808;-56
2021/01/06 06:33:55;;;;;;;4.78;4.47;;;;;;;28.32;54.94;100548.81;4970845;28;70556;-55
2021/01/06 06:36:30;;;;;;;4.43;3.97;;;;;;;28.40;54.54;100562.09;4955470;28;66083;-54
2021/01/06 06:39:27;;;;;;;5.20;4.70;;;;;;;28.30;55.06;100550.91;4938453;28;70643;-58
2021/01/06 06:42:26;;;;;;;4.85;4.55;;;;;;;28.27;55.11;100554.03;4971094;28;66663;-55
2021/01/06 06:45:01;;;;;;;4.10;3.80;;;;;;;28.33;55.19;100547.78;4936110;28;70548;-58
2021/01/06 06:47:52;;;;;;;4.97;4.57;;;;;;;28.28;56.27;100548.44;4923901;28;66628;-58
2021/01/06 06:50:49;;;;;;;4.75;4.35;;;;;;;28.42;56.14;100537.63;4954759;28;70542;-58
2021/01/06 06:53:38;;;;;;;7.25;3.90;;;;;;;28.44;54.96;100530.97;4977534;28;66612;-59
2021/01/06 06:56:27;;;;;;;4.53;3.40;;;;;;;28.28;53.53;100526.03;4942072;28;70324;-59
2021/01/06 06:59:09;;;;;;;5.15;4.00;;;;;;;28.26;53.48;100533.50;4958462;28;65036;-61
2021/01/06 07:01:47;;;;;;;6.13;4.07;;;;;;;28.20;54.82;100537.88;4957803;28;69867;-57
2021/01/06 07:04:50;;;;;;;11.82;4.20;;;;;;;28.17;55.86;100530.19;4942356;28;66347;-58
2021/01/06 07:07:37;;;;;;;3.75;3.50;;;;;;;28.32;56.12;100521.84;4967821;28;70156;-58
2021/01/06 07:10:17;;;;;;;4.30;4.00;;;;;;;28.42;57.00;100527.69;4958394;28;65855;-56
2021/01/06 07:12:53;;;;;;;8.18;4.90;;;;;;;28.47;55.47;100514.38;4959427;28;69722;-59
2021/01/06 07:15:42;;;;;;;5.75;4.38;;;;;;;28.41;54.16;100506.25;4957706;28;65368;-58
2021/01/06 07:18:39;;;;;;;4.75;4.35;;;;;;;28.45;54.63;100504.84;4958118;28;70618;-64
2021/01/06 07:21:17;;;;;;;4.72;4.43;;;;;;;28.50;55.87;100508.56;4990582;28;66586;-64
2021/01/06 07:24:01;;;;;;;4.47;4.07;;;;;;;28.62;55.33;100510.59;4974545;28;70427;-65
2021/01/06 12:55:47;;;;;;;26.95;9.63;;;;;;;29.72;65.47;100919.41;4619624;27;15597306;-54
2021/01/06 12:58:47;;;;;;;27.63;9.52;;;;;;;30.09;64.59;100922.44;5148599;27;69771;-47
